Time;durP1;ratioP1;P1;durP2;ratioP2;P2;SDS_P1;SDS_P2;PMS_P1;PMS_P2;Temp;Humidity;BMP_temperature;BMP_pressure;BME280_temperature;BME280_humidity;BME280_pressure;Samples;Min_cycle;Max_cycle;Signal;HPM_P1;HPM_P2
2022/11/22 00:01:17;;;;;;;4.40;2.47;;;;;;;;;;5047922;28;20230;-36
2022/11/22 00:03:44;;;;;;;3.57;2.30;;;;;;;;;;5051311;28;20208;-35
2022/11/22 00:06:13;;;;;;;6.93;2.53;;;;;;;;;;5051862;28;20224;-39
2022/11/22 00:08:40;;;;;;;3.23;2.10;;;;;;;;;;5044564;28;20204;-36
2022/11/22 00:13:35;;;;;;;4.97;2.33;;;;;;;;;;5059790;28;20232;-30
2022/11/22 00:16:04;;;;;;;4.17;2.47;;;;;;;;;;5056081;28;20213;-27
2022/11/22 00:18:31;;;;;;;4.67;2.40;;;;;;;;;;5068698;28;20209;-28
2022/11/22 00:21:04;;;;;;;3.20;2.50;;;;;;;;;;5069799;28;20231;-27
2022/11/22 00:23:33;;;;;;;4.57;2.30;;;;;;;;;;5056926;28;20209;-26
2022/11/22 00:26:00;;;;;;;4.10;2.70;;;;;;;;;;5054313;28;20219;-27
2022/11/22 00:28:27;;;;;;;2.30;2.07;;;;;;;;;;5057224;28;20205;-27
2022/11/22 00:30:54;;;;;;;5.33;3.27;;;;;;;;;;5059813;28;20236;-29
2022/11/22 00:33:21;;;;;;;4.57;2.43;;;;;;;;;;5067735;28;20213;-28
2022/11/22 00:35:48;;;;;;;3.03;2.50;;;;;;;;;;5060627;28;20194;-26
2022/11/22 00:38:15;;;;;;;3.63;2.10;;;;;;;;;;5056421;28;20232;-26
2022/11/22 00:40:44;;;;;;;2.57;2.20;;;;;;;;;;5063144;28;20221;-28
2022/11/22 00:43:11;;;;;;;6.63;2.63;;;;;;;;;;5070009;28;20216;-28
2022/11/22 00:45:40;;;;;;;4.83;2.40;;;;;;;;;;5062789;28;20208;-30
2022/11/22 00:48:07;;;;;;;3.53;2.27;;;;;;;;;;5069600;28;20229;-29
2022/11/22 00:50:35;;;;;;;4.67;2.67;;;;;;;;;;5068457;28;20225;-30
2022/11/22 00:53:02;;;;;;;2.37;2.17;;;;;;;;;;5054662;28;20273;-25
2022/11/22 00:55:29;;;;;;;3.57;2.23;;;;;;;;;;5055526;28;20201;-28
2022/11/22 00:57:57;;;;;;;3.07;2.27;;;;;;;;;;5069538;28;20299;-26
2022/11/22 01:00:24;;;;;;;3.47;2.33;;;;;;;;;;5060556;28;20234;-29
2022/11/22 01:02:51;;;;;;;2.90;2.23;;;;;;;;;;5064435;28;20212;-26
2022/11/22 01:05:19;;;;;;;4.57;2.73;;;;;;;;;;5068872;28;20204;-25
2022/11/22 01:07:46;;;;;;;5.37;2.90;;;;;;;;;;5061777;28;20194;-27
2022/11/22 01:10:13;;;;;;;2.30;2.10;;;;;;;;;;5050850;28;20225;-27
2022/11/22 01:12:40;;;;;;;3.93;2.67;;;;;;;;;;5061855;28;20219;-27
2022/11/22 01:15:09;;;;;;;4.73;2.90;;;;;;;;;;5062047;28;20216;-27
2022/11/22 01:17:37;;;;;;;4.00;2.20;;;;;;;;;;5072947;28;20286;-27
2022/11/22 01:20:04;;;;;;;3.47;2.47;;;;;;;;;;5073101;28;20212;-27
2022/11/22 01:22:31;;;;;;;5.67;2.40;;;;;;;;;;5057005;28;20255;-25
2022/11/22 01:24:58;;;;;;;4.70;2.50;;;;;;;;;;5061938;28;20570;-29
2022/11/22 01:27:25;;;;;;;5.40;2.80;;;;;;;;;;5072153;28;20271;-27
2022/11/22 01:29:52;;;;;;;2.67;2.40;;;;;;;;;;5063705;28;20214;-27
2022/11/22 01:32:21;;;;;;;3.27;2.47;;;;;;;;;;5070508;28;20212;-29
2022/11/22 01:34:48;;;;;;;4.33;2.50;;;;;;;;;;5072289;28;20204;-27
2022/11/22 01:37:15;;;;;;;4.27;2.63;;;;;;;;;;5063519;28;20214;-26
2022/11/22 01:39:42;;;;;;;4.30;2.20;;;;;;;;;;5059959;28;20202;-30
2022/11/22 01:42:09;;;;;;;6.13;2.80;;;;;;;;;;5072979;28;20227;-30
2022/11/22 01:44:37;;;;;;;3.90;2.37;;;;;;;;;;5064859;28;20201;-28
2022/11/22 01:47:06;;;;;;;6.93;3.60;;;;;;;;;;5063222;28;20224;-27
2022/11/22 01:49:36;;;;;;;4.70;2.40;;;;;;;;;;5072438;28;20205;-27
2022/11/22 01:52:06;;;;;;;3.97;2.63;;;;;;;;;;5069113;28;20225;-28
2022/11/22 01:54:34;;;;;;;4.53;3.17;;;;;;;;;;5063692;28;20201;-27
2022/11/22 01:57:05;;;;;;;5.03;2.83;;;;;;;;;;5071472;28;20205;-27
2022/11/22 01:59:34;;;;;;;4.20;2.60;;;;;;;;;;5057218;28;20209;-26
2022/11/22 02:02:01;;;;;;;2.83;2.57;;;;;;;;;;5064601;28;20221;-27
2022/11/22 02:04:29;;;;;;;3.17;2.83;;;;;;;;;;5070589;28;20561;-25
2022/11/22 02:07:00;;;;;;;4.17;2.73;;;;;;;;;;5064944;28;20206;-25
2022/11/22 02:09:28;;;;;;;10.20;2.70;;;;;;;;;;5061050;28;20213;-25
2022/11/22 02:11:56;;;;;;;3.50;2.67;;;;;;;;;;5066242;28;20243;-29
2022/11/22 02:14:25;;;;;;;3.43;2.67;;;;;;;;;;5064829;28;20194;-28
2022/11/22 02:16:52;;;;;;;5.67;3.23;;;;;;;;;;5066012;28;20209;-26
2022/11/22 02:19:20;;;;;;;3.73;2.80;;;;;;;;;;5064798;28;20313;-27
2022/11/22 02:21:49;;;;;;;4.60;2.90;;;;;;;;;;5067826;28;20309;-28
2022/11/22 02:24:20;;;;;;;4.80;2.83;;;;;;;;;;5062209;28;20432;-28
2022/11/22 02:26:49;;;;;;;3.73;2.97;;;;;;;;;;5069580;28;20288;-28
2022/11/22 02:29:16;;;;;;;4.67;2.90;;;;;;;;;;5052175;28;20201;-25
2022/11/22 02:31:44;;;;;;;4.17;2.77;;;;;;;;;;5065777;28;20221;-28
2022/11/22 02:34:11;;;;;;;6.27;3.13;;;;;;;;;;5071317;28;20220;-28
2022/11/22 02:36:40;;;;;;;6.77;3.20;;;;;;;;;;5067647;28;20201;-28
2022/11/22 02:39:07;;;;;;;4.13;2.80;;;;;;;;;;5061635;28;20229;-25
2022/11/22 02:41:35;;;;;;;5.90;2.80;;;;;;;;;;5071488;28;20478;-27
2022/11/22 02:44:04;;;;;;;5.43;2.80;;;;;;;;;;5064713;28;20220;-26
2022/11/22 02:46:31;;;;;;;4.83;2.93;;;;;;;;;;5059114;28;20206;-29
2022/11/22 02:48:58;;;;;;;3.43;2.63;;;;;;;;;;5071598;28;20198;-26
2022/11/22 02:51:25;;;;;;;4.00;2.80;;;;;;;;;;5067675;28;20221;-27
2022/11/22 02:53:53;;;;;;;3.90;3.00;;;;;;;;;;5059399;28;20210;-27
2022/11/22 02:56:20;;;;;;;5.37;3.30;;;;;;;;;;5070705;28;20208;-25
2022/11/22 02:58:47;;;;;;;3.60;2.77;;;;;;;;;;5066757;28;20225;-26
2022/11/22 03:01:17;;;;;;;3.33;2.40;;;;;;;;;;5062969;28;20236;-29
2022/11/22 03:03:44;;;;;;;4.10;2.30;;;;;;;;;;5070867;28;20205;-30
2022/11/22 03:06:11;;;;;;;5.97;3.07;;;;;;;;;;5057462;28;20211;-27
2022/11/22 03:08:38;;;;;;;5.47;2.70;;;;;;;;;;5059242;28;20201;-28
2022/11/22 03:11:05;;;;;;;3.37;2.80;;;;;;;;;;5066559;28;20247;-28
2022/11/22 03:13:32;;;;;;;4.20;3.23;;;;;;;;;;5064388;28;20213;-30
2022/11/22 03:15:59;;;;;;;4.97;3.33;;;;;;;;;;5059794;28;20214;-28
2022/11/22 03:18:28;;;;;;;3.93;2.90;;;;;;;;;;5069273;28;20221;-29
2022/11/22 03:20:55;;;;;;;4.70;3.10;;;;;;;;;;5067939;28;20225;-25
2022/11/22 03:23:22;;;;;;;3.07;2.60;;;;;;;;;;5054227;28;20202;-27
2022/11/22 03:25:49;;;;;;;2.97;2.63;;;;;;;;;;5064259;28;20221;-26
2022/11/22 03:28:16;;;;;;;3.20;2.80;;;;;;;;;;5071564;28;20240;-26
2022/11/22 03:30:43;;;;;;;4.33;2.73;;;;;;;;;;5058663;28;20221;-24
2022/11/22 03:33:11;;;;;;;3.23;2.43;;;;;;;;;;5071462;28;20205;-26
2022/11/22 03:35:39;;;;;;;4.17;2.97;;;;;;;;;;5051237;28;20229;-26
2022/11/22 03:38:07;;;;;;;2.63;2.43;;;;;;;;;;5051729;28;20225;-27
2022/11/22 03:40:34;;;;;;;3.43;2.40;;;;;;;;;;5065148;28;20232;-27
2022/11/22 03:43:01;;;;;;;2.47;2.27;;;;;;;;;;5069819;28;20218;-27
2022/11/22 03:45:29;;;;;;;3.20;2.10;;;;;;;;;;5058107;28;20209;-28
2022/11/22 03:47:56;;;;;;;3.13;2.40;;;;;;;;;;5058713;28;20497;-27
2022/11/22 03:50:23;;;;;;;4.13;2.30;;;;;;;;;;5070028;28;20225;-26
2022/11/22 03:52:51;;;;;;;2.73;2.37;;;;;;;;;;5063685;28;20197;-27
2022/11/22 03:55:19;;;;;;;3.63;2.97;;;;;;;;;;5069567;28;20213;-26
2022/11/22 03:57:46;;;;;;;6.30;2.57;;;;;;;;;;5068313;28;20292;-27
2022/11/22 04:00:13;;;;;;;3.87;2.30;;;;;;;;;;5056978;28;20228;-27
2022/11/22 04:02:40;;;;;;;4.03;2.53;;;;;;;;;;5065046;28;20655;-28
2022/11/22 04:05:08;;;;;;;3.90;2.67;;;;;;;;;;5070135;28;20201;-29
2022/11/22 04:07:35;;;;;;;3.20;2.50;;;;;;;;;;5070210;28;20209;-27
2022/11/22 04:10:04;;;;;;;2.63;2.10;;;;;;;;;;5062366;28;20215;-27
2022/11/22 04:12:31;;;;;;;4.50;2.83;;;;;;;;;;5067198;28;20218;-28
2022/11/22 04:15:07;;;;;;;4.00;2.43;;;;;;;;;;5062100;28;20206;-28
2022/11/22 04:17:44;;;;;;;2.93;2.37;;;;;;;;;;5069405;28;20201;-27
2022/11/22 04:22:58;;;;;;;3.67;2.23;;;;;;;;;;5055787;28;20209;-28
2022/11/22 04:25:26;;;;;;;2.20;2.00;;;;;;;;;;5066800;28;20212;-27
2022/11/22 04:27:54;;;;;;;3.27;2.50;;;;;;;;;;5070404;28;20201;-26
2022/11/22 04:30:21;;;;;;;2.57;2.37;;;;;;;;;;5062311;28;20225;-27
2022/11/22 04:32:47;;;;;;;4.03;2.40;;;;;;;;;;5069409;28;20197;-26
2022/11/22 04:35:15;;;;;;;5.17;2.87;;;;;;;;;;5070334;28;20212;-25
2022/11/22 04:37:42;;;;;;;2.83;2.00;;;;;;;;;;5064048;28;20202;-27
2022/11/22 04:40:10;;;;;;;2.20;2.00;;;;;;;;;;5058806;28;20228;-27
2022/11/22 04:45:23;;;;;;;5.13;2.47;;;;;;;;;;5061658;28;20300;-27
2022/11/22 04:47:59;;;;;;;2.93;1.70;;;;;;;;;;5069041;28;20213;-26
2022/11/22 04:53:12;;;;;;;2.90;1.97;;;;;;;;;;5062149;28;20290;-26
2022/11/22 04:55:39;;;;;;;2.47;2.13;;;;;;;;;;5061415;28;20197;-29
2022/11/22 04:58:07;;;;;;;3.70;2.03;;;;;;;;;;5069980;28;20248;-28
2022/11/22 05:00:34;;;;;;;2.90;2.30;;;;;;;;;;5062460;28;20240;-27
2022/11/22 05:03:02;;;;;;;7.17;3.23;;;;;;;;;;5064735;28;20340;-28
2022/11/22 05:05:29;;;;;;;3.17;2.70;;;;;;;;;;5070231;28;20292;-29
2022/11/22 05:07:56;;;;;;;3.00;2.53;;;;;;;;;;5068955;28;20208;-27
2022/11/22 05:10:23;;;;;;;3.27;2.43;;;;;;;;;;5052461;28;20221;-29
2022/11/22 05:12:50;;;;;;;4.37;2.77;;;;;;;;;;5060174;28;20222;-28
2022/11/22 05:15:19;;;;;;;3.83;3.00;;;;;;;;;;5056227;28;20210;-29
2022/11/22 05:17:46;;;;;;;7.50;2.67;;;;;;;;;;5069114;28;20202;-30
2022/11/22 05:20:13;;;;;;;4.13;2.77;;;;;;;;;;5068985;28;20225;-29
2022/11/22 05:25:25;;;;;;;5.20;2.93;;;;;;;;;;5066924;28;20211;-31
2022/11/22 05:27:54;;;;;;;4.67;2.23;;;;;;;;;;5059319;28;20212;-29
2022/11/22 05:30:22;;;;;;;2.30;2.10;;;;;;;;;;5061724;28;20232;-30
2022/11/22 05:32:49;;;;;;;3.27;2.80;;;;;;;;;;5064619;28;20198;-28
2022/11/22 05:35:16;;;;;;;3.23;2.37;;;;;;;;;;5063115;28;20212;-28
2022/11/22 05:37:44;;;;;;;4.63;3.00;;;;;;;;;;5062847;28;20201;-27
2022/11/22 05:40:12;;;;;;;4.80;3.60;;;;;;;;;;5056312;28;20233;-29
2022/11/22 05:42:39;;;;;;;3.10;2.60;;;;;;;;;;5063216;28;20208;-27
2022/11/22 05:45:07;;;;;;;4.40;2.97;;;;;;;;;;5052002;28;20201;-28
2022/11/22 05:47:35;;;;;;;4.70;3.30;;;;;;;;;;5068296;28;20205;-31
2022/11/22 05:50:02;;;;;;;3.40;2.70;;;;;;;;;;5065638;28;20201;-30
2022/11/22 05:52:30;;;;;;;3.43;2.73;;;;;;;;;;5061025;28;20502;-29
2022/11/22 05:54:57;;;;;;;2.97;2.20;;;;;;;;;;5060934;28;20212;-28
2022/11/22 05:57:24;;;;;;;2.80;2.60;;;;;;;;;;5069210;28;20208;-28
2022/11/22 05:59:51;;;;;;;2.57;2.33;;;;;;;;;;5063257;28;20235;-27
2022/11/22 06:02:18;;;;;;;3.33;2.70;;;;;;;;;;5063771;28;20205;-27
2022/11/22 06:04:47;;;;;;;3.17;2.17;;;;;;;;;;5070897;28;20201;-26
2022/11/22 06:07:14;;;;;;;2.77;2.47;;;;;;;;;;5073935;28;20205;-28
2022/11/22 06:09:41;;;;;;;3.00;2.40;;;;;;;;;;5061843;28;20208;-27
2022/11/22 06:12:08;;;;;;;2.93;2.50;;;;;;;;;;5073249;28;20233;-28
2022/11/22 06:14:36;;;;;;;3.17;2.63;;;;;;;;;;5066886;28;20212;-25
2022/11/22 06:17:04;;;;;;;3.00;2.17;;;;;;;;;;5068919;28;20205;-24
2022/11/22 06:19:31;;;;;;;4.33;2.80;;;;;;;;;;5072822;28;20221;-26
2022/11/22 06:22:08;;;;;;;4.60;3.00;;;;;;;;;;5075125;28;20217;-27
2022/11/22 06:24:35;;;;;;;4.50;2.50;;;;;;;;;;5279619;23;20237;-27
2022/11/22 06:27:02;;;;;;;2.50;2.30;;;;;;;;;;5022591;28;20293;-25
2022/11/22 06:29:30;;;;;;;5.87;2.50;;;;;;;;;;5023378;28;20199;-26
2022/11/22 06:31:57;;;;;;;3.37;2.50;;;;;;;;;;5021165;28;20231;-25
2022/11/22 06:34:24;;;;;;;3.50;2.60;;;;;;;;;;5031090;28;20213;-24
2022/11/22 06:36:51;;;;;;;3.17;2.40;;;;;;;;;;5032224;28;20203;-24
2022/11/22 06:39:20;;;;;;;3.53;3.13;;;;;;;;;;5025560;28;20226;-26
2022/11/22 06:41:47;;;;;;;3.80;2.40;;;;;;;;;;5027269;28;20229;-25
2022/11/22 06:44:14;;;;;;;2.60;2.40;;;;;;;;;;5017398;28;20213;-25
2022/11/22 06:46:41;;;;;;;2.43;2.23;;;;;;;;;;5030800;28;20211;-26
2022/11/22 06:49:08;;;;;;;2.80;2.50;;;;;;;;;;5026805;28;20286;-25
2022/11/22 06:51:35;;;;;;;4.30;2.77;;;;;;;;;;5031968;28;20223;-25
2022/11/22 06:54:02;;;;;;;2.67;2.10;;;;;;;;;;5024519;28;20221;-24
2022/11/22 06:56:31;;;;;;;2.70;2.40;;;;;;;;;;5030228;28;20209;-28
2022/11/22 06:59:02;;;;;;;5.27;2.80;;;;;;;;;;5026766;28;20294;-28
2022/11/22 07:01:29;;;;;;;2.53;2.23;;;;;;;;;;5024859;28;20231;-26
2022/11/22 07:03:57;;;;;;;3.57;2.30;;;;;;;;;;5029923;28;20237;-23
2022/11/22 07:06:25;;;;;;;2.43;2.20;;;;;;;;;;5027620;28;20229;-27
2022/11/22 07:08:52;;;;;;;2.97;2.27;;;;;;;;;;5025920;28;20215;-26
2022/11/22 07:11:21;;;;;;;2.87;2.30;;;;;;;;;;5021785;28;20587;-25
2022/11/22 07:13:50;;;;;;;2.50;2.30;;;;;;;;;;5023263;28;20329;-25
2022/11/22 07:16:19;;;;;;;2.57;2.27;;;;;;;;;;5028105;28;20207;-28
2022/11/22 07:18:46;;;;;;;4.57;2.47;;;;;;;;;;5027272;28;20298;-23
2022/11/22 07:21:14;;;;;;;2.83;2.30;;;;;;;;;;5012224;28;20238;-26
2022/11/22 07:23:42;;;;;;;2.67;2.47;;;;;;;;;;5012112;28;20218;-23
2022/11/22 07:26:10;;;;;;;2.53;2.33;;;;;;;;;;5027171;28;20206;-25
2022/11/22 07:28:37;;;;;;;3.97;2.37;;;;;;;;;;5019768;28;20198;-28
2022/11/22 07:31:06;;;;;;;2.50;2.30;;;;;;;;;;5023188;28;20231;-25
2022/11/22 07:33:34;;;;;;;2.57;2.10;;;;;;;;;;5032711;28;20203;-25
2022/11/22 07:36:04;;;;;;;3.77;3.20;;;;;;;;;;5033302;28;20206;-24
2022/11/22 07:38:31;;;;;;;2.87;2.43;;;;;;;;;;5027511;28;20203;-26
2022/11/22 07:40:58;;;;;;;3.80;2.57;;;;;;;;;;5023486;28;20688;-26
2022/11/22 07:43:25;;;;;;;3.53;2.60;;;;;;;;;;5025708;28;20203;-26
2022/11/22 07:45:52;;;;;;;3.10;2.53;;;;;;;;;;5027030;28;20247;-23
2022/11/22 07:48:21;;;;;;;2.83;2.37;;;;;;;;;;5029511;28;20356;-24
2022/11/22 07:50:48;;;;;;;2.60;2.40;;;;;;;;;;5032819;28;20226;-25
2022/11/22 07:53:15;;;;;;;2.63;2.37;;;;;;;;;;5027444;28;20219;-25
2022/11/22 07:55:43;;;;;;;2.80;2.50;;;;;;;;;;5032209;28;20206;-25
2022/11/22 07:58:12;;;;;;;3.17;2.53;;;;;;;;;;5032799;28;20214;-25
2022/11/22 08:00:39;;;;;;;3.40;2.60;;;;;;;;;;5018907;28;20226;-25
2022/11/22 08:03:07;;;;;;;4.17;2.40;;;;;;;;;;5030314;28;20202;-24
2022/11/22 08:05:36;;;;;;;3.77;2.57;;;;;;;;;;5032485;28;20207;-24
2022/11/22 08:08:03;;;;;;;2.53;2.33;;;;;;;;;;5029077;28;20214;-24
2022/11/22 08:10:30;;;;;;;3.77;2.50;;;;;;;;;;5030319;28;20222;-25
2022/11/22 08:12:59;;;;;;;3.10;2.50;;;;;;;;;;5032767;28;20203;-25
2022/11/22 08:15:27;;;;;;;2.73;2.47;;;;;;;;;;5026816;28;20210;-27
2022/11/22 08:17:54;;;;;;;3.97;2.70;;;;;;;;;;5028584;28;20199;-25
2022/11/22 08:20:21;;;;;;;4.17;2.57;;;;;;;;;;5032421;28;20223;-23
2022/11/22 08:22:50;;;;;;;3.10;2.80;;;;;;;;;;5028030;28;20207;-24
2022/11/22 08:25:17;;;;;;;3.67;2.03;;;;;;;;;;5018567;28;20226;-25
2022/11/22 08:27:44;;;;;;;5.03;2.37;;;;;;;;;;5032508;28;20305;-25
2022/11/22 08:30:11;;;;;;;3.00;2.50;;;;;;;;;;5026693;28;20226;-25
2022/11/22 08:32:38;;;;;;;3.47;2.53;;;;;;;;;;5031854;28;20205;-26
2022/11/22 08:35:06;;;;;;;3.97;2.67;;;;;;;;;;5031971;28;20213;-26
2022/11/22 08:37:33;;;;;;;5.13;2.70;;;;;;;;;;5020682;28;20207;-25
2022/11/22 08:40:02;;;;;;;3.27;2.53;;;;;;;;;;5019235;28;20226;-27
2022/11/22 08:42:29;;;;;;;4.03;2.80;;;;;;;;;;5032131;28;20301;-26
2022/11/22 08:44:56;;;;;;;2.73;2.47;;;;;;;;;;5024169;28;20241;-27
2022/11/22 08:47:23;;;;;;;2.93;2.60;;;;;;;;;;5024557;28;20297;-24
2022/11/22 08:49:50;;;;;;;3.83;2.77;;;;;;;;;;5031636;28;20683;-26
2022/11/22 08:52:17;;;;;;;4.40;2.37;;;;;;;;;;5017162;28;20210;-25
2022/11/22 08:54:44;;;;;;;3.30;2.77;;;;;;;;;;5018532;28;20208;-28
2022/11/22 08:57:13;;;;;;;4.43;2.77;;;;;;;;;;5029589;28;20216;-25
2022/11/22 08:59:40;;;;;;;3.67;2.60;;;;;;;;;;5025340;28;20219;-27
2022/11/22 09:02:07;;;;;;;3.27;2.20;;;;;;;;;;5024873;28;20231;-27
2022/11/22 09:04:36;;;;;;;4.03;2.37;;;;;;;;;;5031741;28;20562;-24
2022/11/22 09:07:03;;;;;;;13.27;7.70;;;;;;;;;;5028653;28;20198;-25
2022/11/22 09:09:30;;;;;;;5.63;3.67;;;;;;;;;;5023259;28;20728;-27
2022/11/22 09:11:58;;;;;;;3.43;2.83;;;;;;;;;;5031669;28;20227;-26
2022/11/22 09:14:26;;;;;;;3.80;3.00;;;;;;;;;;5028919;28;20209;-24
2022/11/22 09:16:53;;;;;;;3.23;2.93;;;;;;;;;;5025000;28;20305;-25
2022/11/22 09:19:20;;;;;;;4.53;2.67;;;;;;;;;;5030260;28;20203;-26
2022/11/22 09:21:47;;;;;;;4.50;2.40;;;;;;;;;;5030496;28;20227;-25
2022/11/22 09:24:14;;;;;;;4.33;2.73;;;;;;;;;;5018312;28;20218;-27
2022/11/22 09:26:42;;;;;;;4.87;2.80;;;;;;;;;;5027788;28;20207;-26
2022/11/22 09:29:09;;;;;;;4.63;2.50;;;;;;;;;;5018868;28;20203;-26
2022/11/22 09:31:37;;;;;;;3.13;2.70;;;;;;;;;;5030644;28;20230;-23
2022/11/22 09:34:04;;;;;;;14.83;7.03;;;;;;;;;;5033997;28;20205;-24
2022/11/22 09:36:31;;;;;;;33.67;19.80;;;;;;;;;;5033260;28;20206;-23
2022/11/22 09:38:59;;;;;;;17.77;9.80;;;;;;;;;;5022781;28;20477;-25
2022/11/22 09:41:38;;;;;;;14.67;8.47;;;;;;;;;;5032699;28;20226;-27
2022/11/22 09:44:08;;;;;;;13.37;8.97;;;;;;;;;;5030137;28;20289;-24
2022/11/22 09:46:40;;;;;;;7.43;4.63;;;;;;;;;;5022717;28;20207;-25
2022/11/22 09:49:17;;;;;;;3.33;2.73;;;;;;;;;;5035062;28;20205;-24
2022/11/22 09:51:47;;;;;;;4.83;2.73;;;;;;;;;;5034004;28;20289;-26
2022/11/22 09:54:16;;;;;;;4.73;2.70;;;;;;;;;;5035919;28;20207;-26
2022/11/22 09:56:44;;;;;;;6.37;3.10;;;;;;;;;;5034717;28;20202;-26
2022/11/22 09:59:14;;;;;;;3.30;2.60;;;;;;;;;;5029479;28;20239;-23
2022/11/22 10:01:45;;;;;;;6.27;3.70;;;;;;;;;;5020292;28;20227;-23
2022/11/22 10:04:15;;;;;;;5.17;3.40;;;;;;;;;;5035586;28;20218;-26
2022/11/22 10:06:43;;;;;;;4.00;3.60;;;;;;;;;;5035122;28;20211;-24
2022/11/22 10:09:20;;;;;;;4.40;3.20;;;;;;;;;;5022417;28;20230;-28
2022/11/22 10:11:50;;;;;;;6.37;3.70;;;;;;;;;;5026380;28;20223;-25
2022/11/22 10:14:23;;;;;;;4.90;4.07;;;;;;;;;;5028330;28;20204;-26
2022/11/22 10:16:54;;;;;;;6.07;3.60;;;;;;;;;;5027853;28;20206;-26
2022/11/22 10:19:23;;;;;;;4.60;3.60;;;;;;;;;;5034318;28;20191;-24
2022/11/22 10:21:50;;;;;;;3.43;3.13;;;;;;;;;;5032719;28;20236;-27
2022/11/22 10:24:18;;;;;;;4.17;3.00;;;;;;;;;;5023242;28;20229;-27
2022/11/22 10:26:46;;;;;;;4.27;3.27;;;;;;;;;;5033333;28;20203;-26
2022/11/22 10:29:19;;;;;;;3.40;3.10;;;;;;;;;;5029389;28;20265;-26
2022/11/22 10:31:50;;;;;;;3.30;2.80;;;;;;;;;;5027316;28;20230;-26
2022/11/22 10:34:22;;;;;;;6.97;3.30;;;;;;;;;;5034617;28;20204;-24
2022/11/22 10:36:51;;;;;;;3.87;3.43;;;;;;;;;;5034622;28;20293;-25
2022/11/22 10:39:21;;;;;;;5.37;2.03;;;;;;;;;;5028426;28;20207;-25
2022/11/22 10:42:02;;;;;;;4.50;2.10;;;;;;;;;;5027132;28;20227;-24
2022/11/22 10:44:35;;;;;;;3.53;1.70;;;;;;;;;;5027711;28;20241;-26
2022/11/22 10:47:07;;;;;;;6.20;1.97;;;;;;;;;;5023615;28;20206;-27
2022/11/22 10:49:46;;;;;;;4.97;1.77;;;;;;;;;;5033948;28;20203;-24
2022/11/22 10:52:17;;;;;;;6.17;1.70;;;;;;;;;;5034675;28;20226;-26
2022/11/22 10:54:49;;;;;;;6.63;2.03;;;;;;;;;;5026282;28;20209;-24
2022/11/22 10:57:23;;;;;;;5.53;2.03;;;;;;;;;;5029875;28;20208;-26
2022/11/22 10:59:57;;;;;;;1.60;1.00;;;;;;;;;;5019002;28;20203;-26
2022/11/22 11:02:34;;;;;;;4.67;1.30;;;;;;;;;;5033506;28;20206;-24
2022/11/22 11:05:06;;;;;;;3.40;1.40;;;;;;;;;;5034278;28;20206;-26
2022/11/22 11:07:33;;;;;;;2.87;1.57;;;;;;;;;;5030468;28;20195;-23
2022/11/22 11:10:03;;;;;;;3.50;1.30;;;;;;;;;;5029542;28;20298;-24
2022/11/22 11:12:37;;;;;;;1.20;1.10;;;;;;;;;;5033981;28;20268;-26
2022/11/22 11:15:05;;;;;;;3.57;1.67;;;;;;;;;;5022088;28;20300;-24
2022/11/22 11:17:35;;;;;;;5.87;1.67;;;;;;;;;;5030240;28;20211;-26
2022/11/22 11:20:11;;;;;;;5.83;1.70;;;;;;;;;;5030841;28;20657;-24
2022/11/22 11:22:39;;;;;;;3.53;1.00;;;;;;;;;;5029274;28;20270;-27
2022/11/22 11:25:25;;;;;;;3.27;1.30;;;;;;;;;;5027812;28;20214;-25
2022/11/22 11:27:52;;;;;;;2.50;1.27;;;;;;;;;;5022526;28;20221;-25
2022/11/22 11:30:19;;;;;;;7.10;1.83;;;;;;;;;;5017899;28;20399;-26
2022/11/22 11:32:51;;;;;;;4.10;1.10;;;;;;;;;;5026569;28;20205;-26
2022/11/22 11:35:20;;;;;;;1.50;1.03;;;;;;;;;;5032811;28;20202;-27
2022/11/22 11:37:47;;;;;;;6.97;1.50;;;;;;;;;;5026246;28;20205;-24
2022/11/22 11:40:27;;;;;;;4.10;1.20;;;;;;;;;;5024711;28;20272;-25
2022/11/22 11:43:14;;;;;;;5.07;0.87;;;;;;;;;;5026840;28;20199;-27
2022/11/22 11:45:42;;;;;;;4.00;1.13;;;;;;;;;;5021624;28;20203;-27
2022/11/22 11:48:22;;;;;;;4.60;1.53;;;;;;;;;;5032807;28;20209;-23
2022/11/22 11:50:51;;;;;;;3.57;1.23;;;;;;;;;;5013358;28;20225;-26
2022/11/22 11:53:24;;;;;;;6.03;2.07;;;;;;;;;;5017629;28;20207;-25
2022/11/22 11:55:52;;;;;;;8.73;1.77;;;;;;;;;;5031646;28;20317;-27
2022/11/22 11:58:21;;;;;;;4.30;1.00;;;;;;;;;;5031554;28;20221;-25
2022/11/22 12:00:48;;;;;;;4.87;1.60;;;;;;;;;;5026034;28;20233;-27
2022/11/22 12:03:16;;;;;;;5.27;1.13;;;;;;;;;;5031895;28;20203;-26
2022/11/22 12:05:43;;;;;;;1.97;1.00;;;;;;;;;;5031882;28;20210;-25
2022/11/22 12:08:28;;;;;;;2.57;1.20;;;;;;;;;;5033024;28;20259;-26
2022/11/22 12:10:58;;;;;;;4.47;1.40;;;;;;;;;;5021884;28;20230;-26
2022/11/22 12:13:30;;;;;;;3.17;1.90;;;;;;;;;;5032249;28;20203;-24
2022/11/22 12:16:00;;;;;;;6.00;1.67;;;;;;;;;;5021983;28;20207;-24
2022/11/22 12:18:31;;;;;;;4.77;1.30;;;;;;;;;;5031938;28;20195;-26
2022/11/22 12:21:03;;;;;;;3.33;1.10;;;;;;;;;;5032387;28;20262;-25
2022/11/22 12:23:35;;;;;;;7.93;1.30;;;;;;;;;;5028230;28;20236;-24
2022/11/22 12:28:31;;;;;;;2.23;0.90;;;;;;;;;;5044790;28;20737;-29
2022/11/22 12:31:02;;;;;;;5.00;0.90;;;;;;;;;;5041838;28;20233;-25
2022/11/22 12:33:44;;;;;;;1.90;1.17;;;;;;;;;;5052162;28;20557;-24
2022/11/22 12:36:15;;;;;;;3.63;0.87;;;;;;;;;;5052971;28;20280;-27
2022/11/22 12:38:45;;;;;;;1.97;1.10;;;;;;;;;;5050832;28;20198;-25
2022/11/22 12:41:15;;;;;;;5.00;0.90;;;;;;;;;;5052011;28;20292;-27
2022/11/22 12:43:45;;;;;;;8.43;1.30;;;;;;;;;;5049915;28;20225;-27
2022/11/22 12:46:17;;;;;;;2.07;1.10;;;;;;;;;;5047245;28;20206;-24
2022/11/22 12:48:46;;;;;;;1.90;0.87;;;;;;;;;;5043951;28;20648;-26
2022/11/22 12:51:15;;;;;;;2.07;0.80;;;;;;;;;;5052376;28;20232;-26
2022/11/22 12:53:45;;;;;;;3.20;1.10;;;;;;;;;;5047027;28;20198;-27
2022/11/22 12:56:17;;;;;;;3.53;1.33;;;;;;;;;;5052068;28;20289;-26
2022/11/22 12:58:50;;;;;;;3.80;0.80;;;;;;;;;;5048401;28;20294;-27
2022/11/22 13:01:20;;;;;;;2.23;0.77;;;;;;;;;;5042119;28;20240;-27
2022/11/22 13:03:51;;;;;;;3.17;0.90;;;;;;;;;;5051940;28;20198;-26
2022/11/22 13:06:21;;;;;;;3.87;0.97;;;;;;;;;;5051820;28;20217;-25
2022/11/22 13:08:54;;;;;;;5.40;1.03;;;;;;;;;;5044637;28;20726;-26
2022/11/22 13:11:23;;;;;;;2.70;0.90;;;;;;;;;;5048247;28;20226;-26
2022/11/22 13:13:52;;;;;;;3.50;1.10;;;;;;;;;;5053884;28;20259;-25
2022/11/22 13:16:19;;;;;;;4.93;1.43;;;;;;;;;;5046859;28;20206;-25
2022/11/22 13:18:49;;;;;;;2.00;1.07;;;;;;;;;;5055808;28;20198;-27
2022/11/22 13:21:20;;;;;;;3.57;1.00;;;;;;;;;;5055725;28;20289;-27
2022/11/22 13:23:58;;;;;;;3.87;0.83;;;;;;;;;;5051149;28;20198;-28
2022/11/22 13:26:31;;;;;;;6.73;1.20;;;;;;;;;;5052439;28;20221;-26
2022/11/22 13:28:58;;;;;;;2.03;0.73;;;;;;;;;;5049809;28;20214;-26
2022/11/22 13:31:25;;;;;;;5.43;1.10;;;;;;;;;;5046695;28;20227;-26
2022/11/22 13:33:54;;;;;;;3.43;0.93;;;;;;;;;;5053817;28;20215;-26
2022/11/22 13:36:25;;;;;;;5.47;1.10;;;;;;;;;;5055261;28;20208;-28
2022/11/22 13:38:53;;;;;;;2.97;0.87;;;;;;;;;;5046275;28;20315;-25
2022/11/22 13:41:27;;;;;;;2.47;0.90;;;;;;;;;;5049736;28;20228;-23
2022/11/22 13:43:56;;;;;;;3.83;0.80;;;;;;;;;;5051741;28;20239;-26
2022/11/22 13:46:42;;;;;;;1.67;1.00;;;;;;;;;;5046848;28;20253;-25
2022/11/22 13:49:14;;;;;;;1.83;1.07;;;;;;;;;;5050098;28;20210;-26
2022/11/22 13:51:51;;;;;;;1.73;0.93;;;;;;;;;;5055169;28;20707;-28
2022/11/22 13:54:39;;;;;;;1.40;0.90;;;;;;;;;;5041249;28;20203;-26
2022/11/22 13:57:25;;;;;;;4.00;1.13;;;;;;;;;;5050451;28;20202;-27
2022/11/22 14:00:07;;;;;;;1.80;1.07;;;;;;;;;;5042709;28;20214;-27
2022/11/22 14:02:34;;;;;;;4.37;1.10;;;;;;;;;;5054029;28;20321;-26
2022/11/22 14:05:01;;;;;;;4.47;1.07;;;;;;;;;;5041190;28;20207;-25
2022/11/22 14:07:38;;;;;;;3.13;1.17;;;;;;;;;;5050170;28;20206;-26
2022/11/22 14:10:24;;;;;;;3.20;0.87;;;;;;;;;;5049492;28;20202;-27
2022/11/22 14:12:59;;;;;;;5.00;0.90;;;;;;;;;;5047950;28;20189;-27
2022/11/22 14:15:45;;;;;;;5.03;0.90;;;;;;;;;;5049944;28;20271;-27
2022/11/22 14:18:25;;;;;;;3.33;0.80;;;;;;;;;;5050778;28;20194;-26
2022/11/22 14:20:59;;;;;;;2.13;0.90;;;;;;;;;;5034104;28;20313;-25
2022/11/22 14:23:30;;;;;;;1.60;0.87;;;;;;;;;;5048949;28;20206;-26
2022/11/22 14:26:07;;;;;;;1.87;1.03;;;;;;;;;;5054764;28;20197;-26
2022/11/22 14:28:57;;;;;;;1.70;1.07;;;;;;;;;;5054157;28;20212;-26
2022/11/22 14:31:27;;;;;;;1.60;1.07;;;;;;;;;;5052302;28;20222;-26
2022/11/22 14:34:13;;;;;;;2.33;0.70;;;;;;;;;;5054667;28;20681;-24
2022/11/22 14:36:40;;;;;;;3.13;0.90;;;;;;;;;;5054718;28;20206;-28
2022/11/22 14:39:22;;;;;;;1.37;0.70;;;;;;;;;;5042506;28;20214;-27
2022/11/22 14:41:49;;;;;;;1.60;0.73;;;;;;;;;;5046006;28;20290;-25
2022/11/22 14:44:19;;;;;;;1.40;0.90;;;;;;;;;;5047540;28;20209;-25
2022/11/22 14:46:53;;;;;;;4.50;3.30;;;;;;;;;;5052200;28;20216;-27
2022/11/22 14:49:24;;;;;;;2.40;0.77;;;;;;;;;;5054112;28;20241;-28
2022/11/22 14:51:53;;;;;;;1.33;1.20;;;;;;;;;;5053932;28;20225;-26
2022/11/22 14:54:23;;;;;;;1.40;0.40;;;;;;;;;;5036720;28;20571;-25
2022/11/22 14:56:50;;;;;;;3.47;1.07;;;;;;;;;;5054040;28;20197;-27
2022/11/22 14:59:33;;;;;;;2.33;0.87;;;;;;;;;;5047604;28;20210;-27
2022/11/22 15:02:08;;;;;;;0.93;0.50;;;;;;;;;;5042845;28;20257;-25
2022/11/22 15:04:52;;;;;;;0.70;0.50;;;;;;;;;;5044015;28;20293;-27
2022/11/22 15:07:31;;;;;;;1.70;1.60;;;;;;;;;;5027256;28;20206;-24
2022/11/22 15:10:06;;;;;;;1.90;1.23;;;;;;;;;;5037713;28;20202;-26
2022/11/22 15:12:41;;;;;;;2.00;0.70;;;;;;;;;;5045697;28;20237;-26